Time,TemperatureF,DewpointF,PressureIn,WindDirection,WindDirectionDegrees,WindSpeedMPH,WindSpeedGustMPH,Humidity,HourlyPrecipIn,Conditions,Clouds,dailyrainin,SoftwareType,DateUTC
2013-06-24 00:00:00,86.4,25.7,29.85,SSW,196,2.0,2.0,11,0.00,,,0.00,Wunderground v.1.15,2013-06-24 07:00:00,
2013-06-24 00:05:00,86.1,25.4,29.85,SSW,196,1.0,3.0,11,0.00,,,0.00,Wunderground v.1.15,2013-06-24 07:05:00,
2013-06-24 00:10:00,85.8,25.2,29.85,SSW,196,0.0,0.0,11,0.00,,,0.00,Wunderground v.1.15,2013-06-24 07:10:00,
2013-06-24 00:16:00,85.2,26.8,29.85,SSW,196,0.0,1.0,12,0.00,,,0.00,Wunderground v.1.15,2013-06-24 07:16:00,
2013-06-24 00:21:00,84.8,26.5,29.85,SSW,196,0.0,0.0,12,0.00,,,0.00,Wunderground v.1.15,2013-06-24 07:21:00,
2013-06-24 00:26:00,84.3,28.1,29.86,SSW,196,0.0,2.0,13,0.00,,,0.00,Wunderground v.1.15,2013-06-24 07:26:00,
2013-06-24 00:32:00,83.7,27.6,29.86,SSW,196,0.0,1.0,13,0.00,,,0.00,Wunderground v.1.15,2013-06-24 07:32:00,
2013-06-24 00:37:00,82.8,26.9,29.86,SSW,196,0.0,1.0,13,0.00,,,0.00,Wunderground v.1.15,2013-06-24 07:37:00,
2013-06-24 00:42:00,82.1,28.2,29.86,SSW,196,0.0,0.0,14,0.00,,,0.00,Wunderground v.1.15,2013-06-24 07:42:00,
2013-06-24 00:47:00,81.7,27.8,29.85,SSW,196,0.0,0.0,14,0.00,,,0.00,Wunderground v.1.15,2013-06-24 07:47:00,
2013-06-24 00:52:00,81.2,27.4,29.86,SSW,196,0.0,2.0,14,0.00,,,0.00,Wunderground v.1.15,2013-06-24 07:52:00,
2013-06-24 00:57:00,80.8,27.1,29.86,South,173,1.0,3.0,14,0.00,,,0.00,Wunderground v.1.15,2013-06-24 07:57:00,
2013-06-24 01:02:00,80.4,28.5,29.86,South,173,1.0,2.0,15,0.00,,,0.00,Wunderground v.1.15,2013-06-24 08:02:00,
2013-06-24 01:07:00,80.3,28.4,29.86,South,173,1.0,2.0,15,0.00,,,0.00,Wunderground v.1.15,2013-06-24 08:07:00,
2013-06-24 01:12:00,80.1,28.3,29.86,South,173,1.0,1.0,15,0.00,,,0.00,Wunderground v.1.15,2013-06-24 08:12:00,
2013-06-24 01:18:00,79.8,28.0,29.87,South,173,0.0,1.0,15,0.00,,,0.00,Wunderground v.1.15,2013-06-24 08:18:00,
2013-06-24 01:23:00,79.3,29.2,29.87,South,173,0.0,0.0,16,0.00,,,0.00,Wunderground v.1.15,2013-06-24 08:23:00,
2013-06-24 01:28:00,78.9,28.9,29.87,South,173,0.0,0.0,16,0.00,,,0.00,Wunderground v.1.15,2013-06-24 08:28:00,
2013-06-24 01:33:00,78.4,28.5,29.87,South,185,0.0,3.0,16,0.00,,,0.00,Wunderground v.1.15,2013-06-24 08:33:00,
2013-06-24 01:39:00,77.9,28.1,29.87,South,187,1.0,3.0,16,0.00,,,0.00,Wunderground v.1.15,2013-06-24 08:39:00,
2013-06-24 01:44:00,77.7,27.9,29.87,South,187,1.0,1.0,16,0.00,,,0.00,Wunderground v.1.15,2013-06-24 08:44:00,
2013-06-24 01:49:00,77.5,24.5,29.87,SSW,193,0.0,3.0,14,0.00,,,0.00,Wunderground v.1.15,2013-06-24 08:49:00,
2013-06-24 01:55:00,77.4,22.7,29.87,SSW,193,0.0,0.0,13,0.00,,,0.00,Wunderground v.1.15,2013-06-24 08:55:00,
2013-06-24 02:00:00,77.3,22.6,29.87,SSW,193,0.0,2.0,13,0.00,,,0.00,Wunderground v.1.15,2013-06-24 09:00:00,
2013-06-24 02:05:00,77.3,24.4,29.87,SSW,193,0.0,2.0,14,0.00,,,0.00,Wunderground v.1.15,2013-06-24 09:05:00,
2013-06-24 02:10:00,77.5,24.5,29.87,West,281,0.0,8.0,14,0.00,,,0.00,Wunderground v.1.15,2013-06-24 09:10:00,
2013-06-24 02:15:00,78.2,19.3,29.87,SW,231,2.0,8.0,11,0.00,,,0.00,Wunderground v.1.15,2013-06-24 09:15:00,
2013-06-24 02:21:00,79.3,18.0,29.87,WSW,243,4.0,4.0,10,0.00,,,0.00,Wunderground v.1.15,2013-06-24 09:21:00,
2013-06-24 02:26:00,80.0,18.5,29.87,SW,231,4.0,11.0,10,0.00,,,0.00,Wunderground v.1.15,2013-06-24 09:26:00,
2013-06-24 02:31:00,80.5,18.9,29.87,SSW,208,4.0,4.0,10,0.00,,,0.00,Wunderground v.1.15,2013-06-24 09:31:00,
2013-06-24 02:37:00,80.6,21.2,29.87,South,186,2.0,4.0,11,0.00,,,0.00,Wunderground v.1.15,2013-06-24 09:37:00,
2013-06-24 02:43:00,80.5,23.2,29.87,South,186,0.0,1.0,12,0.00,,,0.00,Wunderground v.1.15,2013-06-24 09:43:00,
2013-06-24 02:48:00,80.3,23.0,29.87,South,186,0.0,1.0,12,0.00,,,0.00,Wunderground v.1.15,2013-06-24 09:48:00,
2013-06-24 02:53:00,79.8,24.6,29.87,South,186,0.0,0.0,13,0.00,,,0.00,Wunderground v.1.15,2013-06-24 09:53:00,
2013-06-24 02:59:00,79.3,25.9,29.87,South,186,0.0,0.0,14,0.00,,,0.00,Wunderground v.1.15,2013-06-24 09:59:00,
2013-06-24 03:04:00,78.7,25.5,29.88,South,186,0.0,0.0,14,0.00,,,0.00,Wunderground v.1.15,2013-06-24 10:04:00,
2013-06-24 03:09:00,77.8,24.8,29.87,South,186,0.0,0.0,14,0.00,,,0.00,Wunderground v.1.15,2013-06-24 10:09:00,
2013-06-24 03:14:00,77.0,25.8,29.88,South,186,0.0,2.0,15,0.00,,,0.00,Wunderground v.1.15,2013-06-24 10:14:00,
2013-06-24 03:19:00,76.0,26.5,29.88,South,186,0.0,2.0,16,0.00,,,0.00,Wunderground v.1.15,2013-06-24 10:19:00,
2013-06-24 03:24:00,75.4,26.1,29.88,South,186,0.0,0.0,16,0.00,,,0.00,Wunderground v.1.15,2013-06-24 10:24:00,
2013-06-24 03:29:00,75.0,27.2,29.88,South,186,0.0,0.0,17,0.00,,,0.00,Wunderground v.1.15,2013-06-24 10:29:00,
2013-06-24 03:35:00,74.4,26.7,29.88,South,186,0.0,0.0,17,0.00,,,0.00,Wunderground v.1.15,2013-06-24 10:35:00,
2013-06-24 03:41:00,73.8,27.6,29.88,South,186,0.0,0.0,18,0.00,,,0.00,Wunderground v.1.15,2013-06-24 10:41:00,
2013-06-24 03:47:00,73.5,27.4,29.88,South,186,0.0,2.0,18,0.00,,,0.00,Wunderground v.1.15,2013-06-24 10:47:00,
2013-06-24 03:52:00,73.4,28.6,29.88,South,177,1.0,1.0,19,0.00,,,0.00,Wunderground v.1.15,2013-06-24 10:52:00,
2013-06-24 03:59:00,73.3,27.2,29.88,South,177,1.0,3.0,18,0.00,,,0.00,Wunderground v.1.15,2013-06-24 10:59:00,
2013-06-24 04:04:00,73.4,27.3,29.88,South,177,1.0,2.0,18,0.00,,,0.00,Wunderground v.1.15,2013-06-24 11:04:00,
2013-06-24 04:09:00,73.5,27.4,29.88,South,177,1.0,2.0,18,0.00,,,0.00,Wunderground v.1.15,2013-06-24 11:09:00,
2013-06-24 04:15:00,73.5,28.7,29.88,South,177,0.0,2.0,19,0.00,,,0.00,Wunderground v.1.15,2013-06-24 11:15:00,
2013-06-24 04:20:00,73.4,28.6,29.88,South,177,0.0,1.0,19,0.00,,,0.00,Wunderground v.1.15,2013-06-24 11:20:00,
2013-06-24 04:26:00,73.6,28.8,29.88,South,177,1.0,2.0,19,0.00,,,0.00,Wunderground v.1.15,2013-06-24 11:26:00,
2013-06-24 04:31:00,73.7,28.8,29.89,South,177,1.0,2.0,19,0.00,,,0.00,Wunderground v.1.15,2013-06-24 11:31:00,
2013-06-24 04:37:00,73.6,28.8,29.89,South,177,1.0,2.0,19,0.00,,,0.00,Wunderground v.1.15,2013-06-24 11:37:00,
2013-06-24 04:42:00,73.5,28.7,29.89,South,177,0.0,2.0,19,0.00,,,0.00,Wunderground v.1.15,2013-06-24 11:42:00,
2013-06-24 04:48:00,73.2,28.4,29.89,South,177,0.0,2.0,19,0.00,,,0.00,Wunderground v.1.15,2013-06-24 11:48:00,
2013-06-24 04:54:00,72.9,28.2,29.89,South,177,0.0,1.0,19,0.00,,,0.00,Wunderground v.1.15,2013-06-24 11:54:00,
2013-06-24 04:59:00,72.6,27.9,29.89,South,177,0.0,1.0,19,0.00,,,0.00,Wunderground v.1.15,2013-06-24 11:59:00,
2013-06-24 05:04:00,72.5,27.9,29.89,South,177,0.0,0.0,19,0.00,,,0.00,Wunderground v.1.15,2013-06-24 12:04:00,
2013-06-24 05:09:00,72.3,27.7,29.90,South,177,0.0,0.0,19,0.00,,,0.00,Wunderground v.1.15,2013-06-24 12:09:00,
2013-06-24 05:15:00,71.6,28.4,29.90,South,177,0.0,0.0,20,0.00,,,0.00,Wunderground v.1.15,2013-06-24 12:15:00,
2013-06-24 05:21:00,71.3,28.1,29.90,South,177,0.0,2.0,20,0.00,,,0.00,Wunderground v.1.15,2013-06-24 12:21:00,
2013-06-24 05:26:00,71.0,26.6,29.90,South,177,0.0,2.0,19,0.00,,,0.00,Wunderground v.1.15,2013-06-24 12:26:00,
2013-06-24 05:32:00,70.9,26.5,29.90,South,177,0.0,2.0,19,0.00,,,0.00,Wunderground v.1.15,2013-06-24 12:32:00,
2013-06-24 05:37:00,71.0,27.9,29.90,South,177,1.0,2.0,20,0.00,,,0.00,Wunderground v.1.15,2013-06-24 12:37:00,
2013-06-24 05:42:00,71.0,30.2,29.90,South,173,1.0,4.0,22,0.00,,,0.00,Wunderground v.1.15,2013-06-24 12:42:00,
2013-06-24 05:48:00,71.6,33.9,29.91,SSE,163,2.0,4.0,25,0.00,,,0.00,Wunderground v.1.15,2013-06-24 12:48:00,
2013-06-24 05:53:00,72.4,33.5,29.91,SSW,201,2.0,5.0,24,0.00,,,0.00,Wunderground v.1.15,2013-06-24 12:53:00,
2013-06-24 05:58:00,73.3,33.2,29.91,SSW,204,3.0,5.0,23,0.00,,,0.00,Wunderground v.1.15,2013-06-24 12:58:00,
2013-06-24 06:03:00,74.0,33.8,29.91,SSW,204,3.0,4.0,23,0.00,,,0.00,Wunderground v.1.15,2013-06-24 13:03:00,
2013-06-24 06:08:00,74.7,33.3,29.91,SSW,205,2.0,4.0,22,0.00,,,0.00,Wunderground v.1.15,2013-06-24 13:08:00,
2013-06-24 06:13:00,75.4,32.7,29.91,SSW,205,2.0,3.0,21,0.00,,,0.00,Wunderground v.1.15,2013-06-24 13:13:00,
2013-06-24 06:19:00,76.0,33.2,29.91,SSW,205,2.0,3.0,21,0.00,,,0.00,Wunderground v.1.15,2013-06-24 13:19:00,
2013-06-24 06:26:00,76.8,33.9,29.91,SSW,204,1.0,3.0,21,0.00,,,0.00,Wunderground v.1.15,2013-06-24 13:26:00,
2013-06-24 06:31:00,77.5,34.5,29.91,SSW,204,1.0,2.0,21,0.00,,,0.00,Wunderground v.1.15,2013-06-24 13:31:00,
2013-06-24 06:36:00,78.2,35.0,29.92,South,184,1.0,3.0,21,0.00,,,0.00,Wunderground v.1.15,2013-06-24 13:36:00,
2013-06-24 06:42:00,78.9,35.6,29.92,South,173,2.0,3.0,21,0.00,,,0.00,Wunderground v.1.15,2013-06-24 13:42:00,
2013-06-24 06:49:00,79.4,34.8,29.92,ESE,113,3.0,5.0,20,0.00,,,0.00,Wunderground v.1.15,2013-06-24 13:49:00,
2013-06-24 06:55:00,79.8,35.1,29.93,ESE,112,3.0,5.0,20,0.00,,,0.00,Wunderground v.1.15,2013-06-24 13:55:00,
2013-06-24 07:00:00,80.3,34.3,29.93,ESE,114,3.0,3.0,19,0.00,,,0.00,Wunderground v.1.15,2013-06-24 14:00:00,
2013-06-24 07:05:00,80.7,35.9,29.93,ESE,114,3.0,3.0,20,0.00,,,0.00,Wunderground v.1.15,2013-06-24 14:05:00,
2013-06-24 07:11:00,81.4,35.2,29.93,SE,131,2.0,3.0,19,0.00,,,0.00,Wunderground v.1.15,2013-06-24 14:11:00,
2013-06-24 07:17:00,82.2,35.8,29.93,SE,128,3.0,4.0,19,0.00,,,0.00,Wunderground v.1.15,2013-06-24 14:17:00,
2013-06-24 07:23:00,82.7,36.2,29.93,SE,128,3.0,3.0,19,0.00,,,0.00,Wunderground v.1.15,2013-06-24 14:23:00,
2013-06-24 07:31:00,83.5,35.5,29.93,SE,128,2.0,2.0,18,0.00,,,0.00,Wunderground v.1.15,2013-06-24 14:31:00,
2013-06-24 07:36:00,84.5,36.3,29.93,SE,130,3.0,4.0,18,0.00,,,0.00,Wunderground v.1.15,2013-06-24 14:36:00,
2013-06-24 07:42:00,84.8,36.6,29.94,SSE,163,4.0,7.0,18,0.00,,,0.00,Wunderground v.1.15,2013-06-24 14:42:00,
2013-06-24 07:47:00,85.6,37.2,29.94,SE,129,4.0,7.0,18,0.00,,,0.00,Wunderground v.1.15,2013-06-24 14:47:00,
2013-06-24 07:52:00,85.7,37.3,29.94,SSE,148,4.0,8.0,18,0.00,,,0.00,Wunderground v.1.15,2013-06-24 14:52:00,
2013-06-24 07:57:00,86.1,37.6,29.94,ESE,119,5.0,8.0,18,0.00,,,0.00,Wunderground v.1.15,2013-06-24 14:57:00,
2013-06-24 08:02:00,86.2,37.7,29.94,SSE,151,5.0,6.0,18,0.00,,,0.00,Wunderground v.1.15,2013-06-24 15:02:00,
2013-06-24 08:07:00,86.7,38.1,29.94,SE,132,5.0,7.0,18,0.00,,,0.00,Wunderground v.1.15,2013-06-24 15:07:00,
2013-06-24 08:12:00,86.7,38.1,29.94,SE,134,5.0,10.0,18,0.00,,,0.00,Wunderground v.1.15,2013-06-24 15:12:00,
2013-06-24 08:17:00,86.4,37.9,29.94,SE,129,6.0,10.0,18,0.00,,,0.00,Wunderground v.1.15,2013-06-24 15:17:00,
2013-06-24 08:23:00,86.5,38.0,29.94,ESE,121,5.0,8.0,18,0.00,,,0.00,Wunderground v.1.15,2013-06-24 15:23:00,
2013-06-24 08:28:00,87.0,36.9,29.94,SSE,154,6.0,10.0,17,0.00,,,0.00,Wunderground v.1.15,2013-06-24 15:28:00,
2013-06-24 08:33:00,88.1,37.8,29.94,SE,144,5.0,10.0,17,0.00,,,0.00,Wunderground v.1.15,2013-06-24 15:33:00,
2013-06-24 08:39:00,88.0,37.7,29.94,South,181,6.0,10.0,17,0.00,,,0.00,Wunderground v.1.15,2013-06-24 15:39:00,
2013-06-24 08:44:00,88.8,38.4,29.94,SE,131,6.0,9.0,17,0.00,,,0.00,Wunderground v.1.15,2013-06-24 15:44:00,
2013-06-24 08:49:00,90.1,37.9,29.94,SW,216,5.0,10.0,16,0.00,,,0.00,Wunderground v.1.15,2013-06-24 15:49:00,
2013-06-24 08:54:00,90.7,36.7,29.94,SSE,151,4.0,8.0,15,0.00,,,0.00,Wunderground v.1.15,2013-06-24 15:54:00,
2013-06-24 08:59:00,89.9,36.1,29.94,South,181,4.0,8.0,15,0.00,,,0.00,Wunderground v.1.15,2013-06-24 15:59:00,
2013-06-24 09:05:00,90.1,36.2,29.94,SSE,168,6.0,9.0,15,0.00,,,0.00,Wunderground v.1.15,2013-06-24 16:05:00,
2013-06-24 09:10:00,90.4,36.5,29.93,SE,128,6.0,6.0,15,0.00,,,0.00,Wunderground v.1.15,2013-06-24 16:10:00,
2013-06-24 09:15:00,90.5,36.5,29.93,ESE,104,5.0,10.0,15,0.00,,,0.00,Wunderground v.1.15,2013-06-24 16:15:00,
2013-06-24 09:21:00,91.3,35.4,29.93,ESE,118,6.0,6.0,14,0.00,,,0.00,Wunderground v.1.15,2013-06-24 16:21:00,
2013-06-24 09:26:00,91.7,35.7,29.93,SE,141,6.0,8.0,14,0.00,,,0.00,Wunderground v.1.15,2013-06-24 16:26:00,
2013-06-24 09:31:00,92.1,36.0,29.93,SE,128,6.0,6.0,14,0.00,,,0.00,Wunderground v.1.15,2013-06-24 16:31:00,
2013-06-24 09:36:00,92.4,34.4,29.93,SE,145,6.0,7.0,13,0.00,,,0.00,Wunderground v.1.15,2013-06-24 16:36:00,
2013-06-24 09:41:00,92.1,34.2,29.93,ESE,123,5.0,8.0,13,0.00,,,0.00,Wunderground v.1.15,2013-06-24 16:41:00,
2013-06-24 09:46:00,93.3,33.1,29.93,SW,225,4.0,8.0,12,0.00,,,0.00,Wunderground v.1.15,2013-06-24 16:46:00,
2013-06-24 09:52:00,93.7,33.4,29.93,SE,145,3.0,12.0,12,0.00,,,0.00,Wunderground v.1.15,2013-06-24 16:52:00,
2013-06-24 09:57:00,93.8,33.5,29.93,SE,125,4.0,12.0,12,0.00,,,0.00,Wunderground v.1.15,2013-06-24 16:57:00,
2013-06-24 10:02:00,94.1,33.7,29.93,SSW,209,3.0,6.0,12,0.00,,,0.00,Wunderground v.1.15,2013-06-24 17:02:00,
2013-06-24 10:07:00,95.8,35.0,29.93,WSW,239,2.0,6.0,12,0.00,,,0.00,Wunderground v.1.15,2013-06-24 17:07:00,
2013-06-24 10:12:00,96.1,35.3,29.93,SSW,206,2.0,5.0,12,0.00,,,0.00,Wunderground v.1.15,2013-06-24 17:12:00,
2013-06-24 10:18:00,95.3,32.5,29.93,SSW,194,2.0,5.0,11,0.00,,,0.00,Wunderground v.1.15,2013-06-24 17:18:00,
2013-06-24 10:23:00,95.7,35.0,29.93,SW,229,2.0,3.0,12,0.00,,,0.00,Wunderground v.1.15,2013-06-24 17:23:00,
2013-06-24 10:28:00,96.2,30.8,29.93,SSW,213,3.0,5.0,10,0.00,,,0.00,Wunderground v.1.15,2013-06-24 17:28:00,
2013-06-24 10:33:00,98.3,29.8,29.93,SW,224,4.0,10.0,9,0.00,,,0.00,Wunderground v.1.15,2013-06-24 17:33:00,
2013-06-24 10:38:00,98.5,29.9,29.92,SSW,197,5.0,10.0,9,0.00,,,0.00,Wunderground v.1.15,2013-06-24 17:38:00,
2013-06-24 10:44:00,98.5,29.9,29.92,SW,219,5.0,6.0,9,0.00,,,0.00,Wunderground v.1.15,2013-06-24 17:44:00,
2013-06-24 10:50:00,99.1,30.4,29.92,SW,229,6.0,6.0,9,0.00,,,0.00,Wunderground v.1.15,2013-06-24 17:50:00,
2013-06-24 10:55:00,97.7,26.5,29.93,WSW,247,6.0,8.0,8,0.00,,,0.00,Wunderground v.1.15,2013-06-24 17:55:00,
2013-06-24 11:01:00,99.3,30.5,29.92,SW,229,6.0,10.0,9,0.00,,,0.00,Wunderground v.1.15,2013-06-24 18:01:00,
2013-06-24 11:06:00,98.8,30.2,29.92,SW,234,7.0,12.0,9,0.00,,,0.00,Wunderground v.1.15,2013-06-24 18:06:00,
2013-06-24 11:11:00,98.6,30.0,29.92,West,260,7.0,7.0,9,0.00,,,0.00,Wunderground v.1.15,2013-06-24 18:11:00,
2013-06-24 11:16:00,99.0,30.3,29.92,SW,234,6.0,8.0,9,0.00,,,0.00,Wunderground v.1.15,2013-06-24 18:16:00,
2013-06-24 11:21:00,99.9,28.1,29.92,WSW,245,5.0,6.0,8,0.00,,,0.00,Wunderground v.1.15,2013-06-24 18:21:00,
2013-06-24 11:28:00,98.9,30.2,29.92,WSW,257,7.0,11.0,9,0.00,,,0.00,Wunderground v.1.15,2013-06-24 18:28:00,
2013-06-24 11:33:00,99.4,33.2,29.92,WSW,239,6.0,12.0,10,0.00,,,0.00,Wunderground v.1.15,2013-06-24 18:33:00,
2013-06-24 11:38:00,100.7,34.2,29.92,West,274,6.0,12.0,10,0.00,,,0.00,Wunderground v.1.15,2013-06-24 18:38:00,
2013-06-24 11:44:00,100.1,33.7,29.91,WSW,246,4.0,5.0,10,0.00,,,0.00,Wunderground v.1.15,2013-06-24 18:44:00,
2013-06-24 11:49:00,100.8,31.6,29.91,WSW,245,4.0,10.0,9,0.00,,,0.00,Wunderground v.1.15,2013-06-24 18:49:00,
2013-06-24 11:55:00,101.0,31.8,29.91,WSW,244,7.0,11.0,9,0.00,,,0.00,Wunderground v.1.15,2013-06-24 18:55:00,
2013-06-24 12:00:00,100.4,31.4,29.91,SW,235,5.0,5.0,9,0.00,,,0.00,Wunderground v.1.15,2013-06-24 19:00:00,
2013-06-24 12:05:00,99.4,33.2,29.91,South,189,4.0,5.0,10,0.00,,,0.00,Wunderground v.1.15,2013-06-24 19:05:00,
2013-06-24 12:11:00,99.7,33.4,29.91,WSW,240,5.0,9.0,10,0.00,,,0.00,Wunderground v.1.15,2013-06-24 19:11:00,
2013-06-24 12:17:00,100.1,31.1,29.90,SW,225,5.0,15.0,9,0.00,,,0.00,Wunderground v.1.15,2013-06-24 19:17:00,
2013-06-24 12:22:00,100.7,31.6,29.90,SW,230,6.0,12.0,9,0.00,,,0.00,Wunderground v.1.15,2013-06-24 19:22:00,
2013-06-24 12:28:00,101.5,29.3,29.90,SW,227,7.0,12.0,8,0.00,,,0.00,Wunderground v.1.15,2013-06-24 19:28:00,
2013-06-24 12:33:00,102.1,29.7,29.90,WSW,239,6.0,16.0,8,0.00,,,0.00,Wunderground v.1.15,2013-06-24 19:33:00,
2013-06-24 12:38:00,101.3,29.1,29.90,West,270,8.0,16.0,8,0.00,,,0.00,Wunderground v.1.15,2013-06-24 19:38:00,
2013-06-24 12:43:00,101.6,29.3,29.90,WSW,238,7.0,12.0,8,0.00,,,0.00,Wunderground v.1.15,2013-06-24 19:43:00,
2013-06-24 12:49:00,102.7,26.9,29.90,WNW,295,6.0,12.0,7,0.00,,,0.00,Wunderground v.1.15,2013-06-24 19:49:00,
2013-06-24 12:54:00,102.1,29.7,29.89,SW,232,6.0,9.0,8,0.00,,,0.00,Wunderground v.1.15,2013-06-24 19:54:00,
2013-06-24 13:00:00,102.3,29.9,29.89,WSW,239,6.0,6.0,8,0.00,,,0.00,Wunderground v.1.15,2013-06-24 20:00:00,
2013-06-24 13:05:00,103.0,30.4,29.89,SSW,205,6.0,9.0,8,0.00,,,0.00,Wunderground v.1.15,2013-06-24 20:05:00,
2013-06-24 13:11:00,102.0,29.6,29.88,West,275,7.0,9.0,8,0.00,,,0.00,Wunderground v.1.15,2013-06-24 20:11:00,
2013-06-24 13:17:00,102.0,29.6,29.89,SSW,193,9.0,10.0,8,0.00,,,0.00,Wunderground v.1.15,2013-06-24 20:17:00,
2013-06-24 13:22:00,102.1,29.7,29.88,WSW,248,8.0,12.0,8,0.00,,,0.00,Wunderground v.1.15,2013-06-24 20:22:00,
2013-06-24 13:28:00,102.1,29.7,29.88,West,265,6.0,13.0,8,0.00,,,0.00,Wunderground v.1.15,2013-06-24 20:28:00,
2013-06-24 13:36:00,103.4,27.4,29.89,SW,225,7.0,17.0,7,0.00,,,0.00,Wunderground v.1.15,2013-06-24 20:36:00,
2013-06-24 13:42:00,102.6,30.1,29.88,SW,231,8.0,10.0,8,0.00,,,0.00,Wunderground v.1.15,2013-06-24 20:42:00,
2013-06-24 13:47:00,102.4,29.9,29.88,SW,219,7.0,10.0,8,0.00,,,0.00,Wunderground v.1.15,2013-06-24 20:47:00,
2013-06-24 13:52:00,103.5,30.7,29.89,WSW,256,7.0,8.0,8,0.00,,,0.00,Wunderground v.1.15,2013-06-24 20:52:00,
2013-06-24 13:57:00,103.2,30.5,29.88,WNW,294,7.0,11.0,8,0.00,,,0.00,Wunderground v.1.15,2013-06-24 20:57:00,
2013-06-24 14:02:00,102.9,30.3,29.88,SW,235,6.0,7.0,8,0.00,,,0.00,Wunderground v.1.15,2013-06-24 21:02:00,
2013-06-24 14:08:00,103.8,31.0,29.88,WNW,282,5.0,7.0,8,0.00,,,0.00,Wunderground v.1.15,2013-06-24 21:08:00,
2013-06-24 14:13:00,103.3,30.6,29.88,WSW,258,7.0,8.0,8,0.00,,,0.00,Wunderground v.1.15,2013-06-24 21:13:00,
2013-06-24 14:18:00,102.3,32.8,29.88,SSW,202,8.0,12.0,9,0.00,,,0.00,Wunderground v.1.15,2013-06-24 21:18:00,
2013-06-24 14:24:00,101.2,31.9,29.87,SE,141,7.0,14.0,9,0.00,,,0.00,Wunderground v.1.15,2013-06-24 21:24:00,
2013-06-24 14:29:00,102.0,29.6,29.87,SSW,198,6.0,14.0,8,0.00,,,0.00,Wunderground v.1.15,2013-06-24 21:29:00,
2013-06-24 14:35:00,103.0,27.1,29.87,WSW,240,7.0,10.0,7,0.00,,,0.00,Wunderground v.1.15,2013-06-24 21:35:00,
2013-06-24 14:40:00,103.1,23.5,29.87,SW,217,8.0,14.0,6,0.00,,,0.00,Wunderground v.1.15,2013-06-24 21:40:00,
2013-06-24 14:45:00,103.0,23.4,29.86,WSW,248,8.0,14.0,6,0.00,,,0.00,Wunderground v.1.15,2013-06-24 21:45:00,
2013-06-24 14:51:00,103.5,23.7,29.86,SW,228,7.0,8.0,6,0.00,,,0.00,Wunderground v.1.15,2013-06-24 21:51:00,
2013-06-24 14:57:00,103.0,23.4,29.87,WSW,250,6.0,10.0,6,0.00,,,0.00,Wunderground v.1.15,2013-06-24 21:57:00,
2013-06-24 15:03:00,103.0,23.4,29.86,SW,221,6.0,14.0,6,0.00,,,0.00,Wunderground v.1.15,2013-06-24 22:03:00,
2013-06-24 15:09:00,103.6,23.8,29.86,SSW,202,7.0,14.0,6,0.00,,,0.00,Wunderground v.1.15,2013-06-24 22:09:00,
2013-06-24 15:14:00,103.6,19.5,29.86,SW,234,7.0,14.0,5,0.00,,,0.00,Wunderground v.1.15,2013-06-24 22:14:00,
2013-06-24 15:20:00,103.3,23.6,29.86,WSW,244,7.0,10.0,6,0.00,,,0.00,Wunderground v.1.15,2013-06-24 22:20:00,
2013-06-24 15:26:00,102.2,22.8,29.86,West,260,8.0,12.0,6,0.00,,,0.00,Wunderground v.1.15,2013-06-24 22:26:00,
2013-06-24 15:32:00,102.5,23.0,29.85,WSW,245,7.0,7.0,6,0.00,,,0.00,Wunderground v.1.15,2013-06-24 22:32:00,
2013-06-24 15:37:00,102.6,23.1,29.86,SW,215,6.0,12.0,6,0.00,,,0.00,Wunderground v.1.15,2013-06-24 22:37:00,
2013-06-24 15:42:00,102.2,22.8,29.85,WSW,257,6.0,6.0,6,0.00,,,0.00,Wunderground v.1.15,2013-06-24 22:42:00,
2013-06-24 15:47:00,102.6,23.1,29.85,West,268,6.0,15.0,6,0.00,,,0.00,Wunderground v.1.15,2013-06-24 22:47:00,
2013-06-24 15:52:00,102.1,22.7,29.85,SW,236,6.0,7.0,6,0.00,,,0.00,Wunderground v.1.15,2013-06-24 22:52:00,
2013-06-24 15:58:00,102.6,23.1,29.85,WSW,256,7.0,11.0,6,0.00,,,0.00,Wunderground v.1.15,2013-06-24 22:58:00,
2013-06-24 16:05:00,102.4,23.0,29.85,SW,225,7.0,12.0,6,0.00,,,0.00,Wunderground v.1.15,2013-06-24 23:05:00,
2013-06-24 16:11:00,102.8,23.2,29.85,WSW,255,6.0,7.0,6,0.00,,,0.00,Wunderground v.1.15,2013-06-24 23:11:00,
2013-06-24 16:16:00,102.7,18.9,29.85,SW,226,6.0,8.0,5,0.00,,,0.00,Wunderground v.1.15,2013-06-24 23:16:00,
2013-06-24 16:21:00,102.3,22.9,29.85,SW,221,7.0,7.0,6,0.00,,,0.00,Wunderground v.1.15,2013-06-24 23:21:00,
2013-06-24 16:26:00,101.8,22.5,29.85,WSW,241,6.0,8.0,6,0.00,,,0.00,Wunderground v.1.15,2013-06-24 23:26:00,
2013-06-24 16:31:00,102.0,22.7,29.85,SW,231,6.0,8.0,6,0.00,,,0.00,Wunderground v.1.15,2013-06-24 23:31:00,
2013-06-24 16:36:00,101.7,18.2,29.85,West,271,6.0,13.0,5,0.00,,,0.00,Wunderground v.1.15,2013-06-24 23:36:00,
2013-06-24 16:41:00,101.5,22.3,29.85,SW,226,7.0,11.0,6,0.00,,,0.00,Wunderground v.1.15,2013-06-24 23:41:00,
2013-06-24 16:46:00,101.4,22.2,29.85,WSW,252,6.0,11.0,6,0.00,,,0.00,Wunderground v.1.15,2013-06-24 23:46:00,
2013-06-24 16:51:00,101.2,22.1,29.85,SW,219,5.0,6.0,6,0.00,,,0.00,Wunderground v.1.15,2013-06-24 23:51:00,
2013-06-24 16:57:00,101.7,22.5,29.84,SW,221,5.0,9.0,6,0.00,,,0.00,Wunderground v.1.15,2013-06-24 23:57:00,
2013-06-24 17:02:00,101.5,22.3,29.85,West,275,6.0,6.0,6,0.00,,,0.00,Wunderground v.1.15,2013-06-25 00:02:00,
2013-06-24 17:07:00,100.7,21.8,29.85,SSW,206,5.0,10.0,6,0.00,,,0.00,Wunderground v.1.15,2013-06-25 00:07:00,
2013-06-24 17:12:00,99.9,21.2,29.85,WSW,239,5.0,5.0,6,0.00,,,0.00,Wunderground v.1.15,2013-06-25 00:12:00,
2013-06-24 17:17:00,99.4,20.8,29.85,West,265,4.0,8.0,6,0.00,,,0.00,Wunderground v.1.15,2013-06-25 00:17:00,
2013-06-24 17:23:00,99.6,21.0,29.84,West,269,4.0,8.0,6,0.00,,,0.00,Wunderground v.1.15,2013-06-25 00:23:00,
2013-06-24 17:29:00,99.7,16.8,29.85,SW,221,5.0,11.0,5,0.00,,,0.00,Wunderground v.1.15,2013-06-25 00:29:00,
2013-06-24 17:34:00,99.6,16.7,29.85,SW,220,5.0,5.0,5,0.00,,,0.00,Wunderground v.1.15,2013-06-25 00:34:00,
2013-06-24 17:39:00,98.9,16.2,29.85,SSW,209,5.0,7.0,5,0.00,,,0.00,Wunderground v.1.15,2013-06-25 00:39:00,
2013-06-24 17:45:00,98.4,20.1,29.84,SSW,201,6.0,8.0,6,0.00,,,0.00,Wunderground v.1.15,2013-06-25 00:45:00,
2013-06-24 17:51:00,98.5,20.2,29.85,SW,227,5.0,5.0,6,0.00,,,0.00,Wunderground v.1.15,2013-06-25 00:51:00,
2013-06-24 17:58:00,98.4,20.1,29.85,SW,229,5.0,5.0,6,0.00,,,0.00,Wunderground v.1.15,2013-06-25 00:58:00,
2013-06-24 18:03:00,98.5,20.2,29.84,West,263,4.0,8.0,6,0.00,,,0.00,Wunderground v.1.15,2013-06-25 01:03:00,
2013-06-24 18:08:00,98.6,20.3,29.85,SW,232,4.0,8.0,6,0.00,,,0.00,Wunderground v.1.15,2013-06-25 01:08:00,
2013-06-24 18:13:00,98.1,19.9,29.85,WSW,248,4.0,8.0,6,0.00,,,0.00,Wunderground v.1.15,2013-06-25 01:13:00,
2013-06-24 18:19:00,97.9,19.8,29.85,SW,233,4.0,9.0,6,0.00,,,0.00,Wunderground v.1.15,2013-06-25 01:19:00,
2013-06-24 18:25:00,97.6,19.5,29.85,SW,218,5.0,10.0,6,0.00,,,0.00,Wunderground v.1.15,2013-06-25 01:25:00,
2013-06-24 18:30:00,97.5,19.5,29.86,WSW,237,6.0,8.0,6,0.00,,,0.00,Wunderground v.1.15,2013-06-25 01:30:00,
2013-06-24 18:35:00,97.4,19.4,29.85,West,262,5.0,11.0,6,0.00,,,0.00,Wunderground v.1.15,2013-06-25 01:35:00,
2013-06-24 18:40:00,97.1,26.0,29.86,WSW,254,4.0,4.0,8,0.00,,,0.00,Wunderground v.1.15,2013-06-25 01:40:00,
2013-06-24 18:45:00,96.6,25.7,29.86,WSW,251,4.0,4.0,8,0.00,,,0.00,Wunderground v.1.15,2013-06-25 01:45:00,
2013-06-24 18:51:00,96.0,25.2,29.86,WNW,300,4.0,6.0,8,0.00,,,0.00,Wunderground v.1.15,2013-06-25 01:51:00,
2013-06-24 18:56:00,95.8,27.9,29.86,West,267,5.0,6.0,9,0.00,,,0.00,Wunderground v.1.15,2013-06-25 01:56:00,
2013-06-24 19:01:00,95.6,27.8,29.86,WSW,248,4.0,4.0,9,0.00,,,0.00,Wunderground v.1.15,2013-06-25 02:01:00,
2013-06-24 19:06:00,95.3,27.5,29.86,WNW,287,4.0,5.0,9,0.00,,,0.00,Wunderground v.1.15,2013-06-25 02:06:00,
2013-06-24 19:12:00,94.9,27.2,29.87,WSW,256,4.0,6.0,9,0.00,,,0.00,Wunderground v.1.15,2013-06-25 02:12:00,
2013-06-24 19:17:00,94.7,27.1,29.87,West,270,5.0,6.0,9,0.00,,,0.00,Wunderground v.1.15,2013-06-25 02:17:00,
2013-06-24 19:22:00,94.3,26.8,29.87,WNW,292,5.0,7.0,9,0.00,,,0.00,Wunderground v.1.15,2013-06-25 02:22:00,
2013-06-24 19:27:00,94.0,26.6,29.87,WNW,298,5.0,7.0,9,0.00,,,0.00,Wunderground v.1.15,2013-06-25 02:27:00,
2013-06-24 19:32:00,93.7,26.3,29.87,WNW,287,5.0,7.0,9,0.00,,,0.00,Wunderground v.1.15,2013-06-25 02:32:00,
2013-06-24 19:38:00,93.5,26.2,29.87,West,266,5.0,7.0,9,0.00,,,0.00,Wunderground v.1.15,2013-06-25 02:38:00,
2013-06-24 19:44:00,93.1,30.8,29.87,West,275,4.0,7.0,11,0.00,,,0.00,Wunderground v.1.15,2013-06-25 02:44:00,
2013-06-24 19:50:00,92.6,36.4,29.87,West,269,5.0,5.0,14,0.00,,,0.00,Wunderground v.1.15,2013-06-25 02:50:00,
2013-06-24 19:56:00,92.2,36.1,29.87,West,275,7.0,13.0,14,0.00,,,0.00,Wunderground v.1.15,2013-06-25 02:56:00,
2013-06-24 20:01:00,92.0,37.7,29.87,West,275,7.0,8.0,15,0.00,,,0.00,Wunderground v.1.15,2013-06-25 03:01:00,
2013-06-24 20:06:00,91.8,37.6,29.87,West,262,6.0,8.0,15,0.00,,,0.00,Wunderground v.1.15,2013-06-25 03:06:00,
2013-06-24 20:12:00,91.5,37.3,29.88,West,265,6.0,7.0,15,0.00,,,0.00,Wunderground v.1.15,2013-06-25 03:12:00,
2013-06-24 20:19:00,91.2,37.1,29.88,WSW,258,5.0,7.0,15,0.00,,,0.00,Wunderground v.1.15,2013-06-25 03:19:00,
2013-06-24 20:24:00,91.0,36.9,29.88,WNW,289,4.0,5.0,15,0.00,,,0.00,Wunderground v.1.15,2013-06-25 03:24:00,
2013-06-24 20:29:00,90.7,36.7,29.88,West,273,5.0,8.0,15,0.00,,,0.00,Wunderground v.1.15,2013-06-25 03:29:00,
2013-06-24 20:34:00,90.5,36.5,29.88,West,277,6.0,6.0,15,0.00,,,0.00,Wunderground v.1.15,2013-06-25 03:34:00,
2013-06-24 20:39:00,90.3,36.4,29.89,West,262,5.0,7.0,15,0.00,,,0.00,Wunderground v.1.15,2013-06-25 03:39:00,
2013-06-24 20:44:00,90.1,36.2,29.89,WSW,255,5.0,7.0,15,0.00,,,0.00,Wunderground v.1.15,2013-06-25 03:44:00,
2013-06-24 20:51:00,89.8,36.0,29.89,WNW,289,5.0,7.0,15,0.00,,,0.00,Wunderground v.1.15,2013-06-25 03:51:00,
2013-06-24 20:58:00,89.6,35.8,29.90,West,272,6.0,8.0,15,0.00,,,0.00,Wunderground v.1.15,2013-06-25 03:58:00,
2013-06-24 21:01:00,89.5,35.7,29.90,West,261,6.0,6.0,15,0.00,,,0.00,Wunderground v.1.15,2013-06-25 04:01:00,
2013-06-24 21:02:00,89.5,35.7,29.90,WSW,254,6.0,6.0,15,0.00,,,0.00,Wunderground v.1.15,2013-06-25 04:02:00,
2013-06-24 21:07:00,89.3,35.6,29.90,West,280,5.0,7.0,15,0.00,,,0.00,Wunderground v.1.15,2013-06-25 04:07:00,
2013-06-24 21:08:00,89.3,35.6,29.91,West,265,5.0,7.0,15,0.00,,,0.00,Wunderground v.1.15,2013-06-25 04:08:00,
2013-06-24 21:14:00,89.0,33.6,29.91,West,262,4.0,5.0,14,0.00,,,0.00,Wunderground v.1.15,2013-06-25 04:14:00,
2013-06-24 21:15:00,88.9,33.5,29.91,West,281,4.0,7.0,14,0.00,,,0.00,Wunderground v.1.15,2013-06-25 04:15:00,
2013-06-24 21:20:00,88.7,33.4,29.91,West,259,5.0,5.0,14,0.00,,,0.00,Wunderground v.1.15,2013-06-25 04:20:00,
2013-06-24 21:25:00,88.5,33.2,29.91,WNW,283,5.0,6.0,14,0.00,,,0.00,Wunderground v.1.15,2013-06-25 04:25:00,
2013-06-24 21:30:00,88.3,33.1,29.92,West,270,4.0,4.0,14,0.00,,,0.00,Wunderground v.1.15,2013-06-25 04:30:00,
2013-06-24 21:35:00,88.0,32.8,29.92,WSW,256,5.0,6.0,14,0.00,,,0.00,Wunderground v.1.15,2013-06-25 04:35:00,
2013-06-24 21:40:00,87.9,32.7,29.92,WNW,287,5.0,7.0,14,0.00,,,0.00,Wunderground v.1.15,2013-06-25 04:40:00,
2013-06-24 21:45:00,87.7,32.6,29.92,West,274,5.0,7.0,14,0.00,,,0.00,Wunderground v.1.15,2013-06-25 04:45:00,
2013-06-24 21:50:00,87.5,32.4,29.92,WSW,255,3.0,3.0,14,0.00,,,0.00,Wunderground v.1.15,2013-06-25 04:50:00,
2013-06-24 21:56:00,87.2,33.9,29.92,West,265,3.0,4.0,15,0.00,,,0.00,Wunderground v.1.15,2013-06-25 04:56:00,
2013-06-24 22:02:00,87.0,33.7,29.93,West,272,3.0,4.0,15,0.00,,,0.00,Wunderground v.1.15,2013-06-25 05:02:00,
2013-06-24 22:07:00,86.7,33.5,29.93,West,271,3.0,4.0,15,0.00,,,0.00,Wunderground v.1.15,2013-06-25 05:07:00,
2013-06-24 22:12:00,86.5,33.4,29.93,West,271,1.0,2.0,15,0.00,,,0.00,Wunderground v.1.15,2013-06-25 05:12:00,
2013-06-24 22:17:00,86.3,33.2,29.93,West,271,1.0,2.0,15,0.00,,,0.00,Wunderground v.1.15,2013-06-25 05:17:00,
2013-06-24 22:23:00,86.1,33.0,29.93,West,272,0.0,1.0,15,0.00,,,0.00,Wunderground v.1.15,2013-06-25 05:23:00,
2013-06-24 22:28:00,85.9,32.9,29.93,West,272,0.0,1.0,15,0.00,,,0.00,Wunderground v.1.15,2013-06-25 05:28:00,
2013-06-24 22:33:00,85.6,34.2,29.93,West,271,0.0,0.0,16,0.00,,,0.00,Wunderground v.1.15,2013-06-25 05:33:00,
2013-06-24 22:38:00,85.2,33.9,29.94,West,272,0.0,0.0,16,0.00,,,0.00,Wunderground v.1.15,2013-06-25 05:38:00,
2013-06-24 22:43:00,84.8,33.6,29.94,West,272,0.0,0.0,16,0.00,,,0.00,Wunderground v.1.15,2013-06-25 05:43:00,
2013-06-24 22:49:00,84.3,33.2,29.94,NNW,331,1.0,5.0,16,0.00,,,0.00,Wunderground v.1.15,2013-06-25 05:49:00,
2013-06-24 22:55:00,83.8,34.3,29.94,NNW,331,1.0,2.0,17,0.00,,,0.00,Wunderground v.1.15,2013-06-25 05:55:00,
2013-06-24 23:00:00,83.6,34.2,29.94,NNW,331,1.0,1.0,17,0.00,,,0.00,Wunderground v.1.15,2013-06-25 06:00:00,
2013-06-24 23:06:00,83.3,33.9,29.94,NNW,331,0.0,1.0,17,0.00,,,0.00,Wunderground v.1.15,2013-06-25 06:06:00,
2013-06-24 23:12:00,83.2,33.8,29.94,NNW,331,0.0,0.0,17,0.00,,,0.00,Wunderground v.1.15,2013-06-25 06:12:00,
2013-06-24 23:17:00,82.7,34.9,29.95,NNW,331,0.0,0.0,18,0.00,,,0.00,Wunderground v.1.15,2013-06-25 06:17:00,
2013-06-24 23:22:00,82.4,34.6,29.95,NNW,331,0.0,0.0,18,0.00,,,0.00,Wunderground v.1.15,2013-06-25 06:22:00,
2013-06-24 23:27:00,82.2,34.5,29.95,NNW,331,0.0,0.0,18,0.00,,,0.00,Wunderground v.1.15,2013-06-25 06:27:00,
2013-06-24 23:32:00,81.7,34.1,29.95,NNW,331,0.0,0.0,18,0.00,,,0.00,Wunderground v.1.15,2013-06-25 06:32:00,
2013-06-24 23:37:00,81.6,34.0,29.95,NNW,331,0.0,0.0,18,0.00,,,0.00,Wunderground v.1.15,2013-06-25 06:37:00,
2013-06-24 23:42:00,81.4,33.8,29.95,NNW,331,0.0,0.0,18,0.00,,,0.00,Wunderground v.1.15,2013-06-25 06:42:00,
2013-06-24 23:48:00,80.8,34.7,29.95,NNW,331,0.0,1.0,19,0.00,,,0.00,Wunderground v.1.15,2013-06-25 06:48:00,
2013-06-24 23:53:00,80.4,34.3,29.95,NNW,331,0.0,0.0,19,0.00,,,0.00,Wunderground v.1.15,2013-06-25 06:53:00,
2013-06-24 23:58:00,80.3,34.3,29.95,NNW,331,0.0,0.0,19,0.00,,,0.00,Wunderground v.1.15,2013-06-25 06:58:00,